createdAt,value
2018-04-08T15:30:14.539Z,10.83
2018-04-08T15:32:41.019Z,8.37
2018-04-08T15:35:08.145Z,7.97
2018-04-08T15:37:44.984Z,5.73
2018-04-08T15:40:11.429Z,10.10
2018-04-08T15:42:37.856Z,13.43
2018-04-08T15:45:04.252Z,8.70
2018-04-08T15:47:33.952Z,12.20
2018-04-08T15:50:01.824Z,12.33
2018-04-08T15:52:28.271Z,11.53
2018-04-08T15:54:54.670Z,10.07
2018-04-08T15:57:21.812Z,10.27
2018-04-08T15:59:48.350Z,8.40
2018-04-08T16:02:15.397Z,6.87
2018-04-08T16:04:42.243Z,6.43
2018-04-08T16:07:08.803Z,8.13
2018-04-08T16:09:35.359Z,8.00
2018-04-08T16:12:01.794Z,5.70
2018-04-08T16:14:28.229Z,7.93
2018-04-08T16:16:54.593Z,11.23
2018-04-08T16:19:21.339Z,8.73
2018-04-08T16:21:47.747Z,6.60
2018-04-08T16:24:14.517Z,6.27
2018-04-08T16:26:40.876Z,6.43
2018-04-08T16:29:08.382Z,8.03
2018-04-08T16:31:34.770Z,8.10
2018-04-08T16:34:01.956Z,10.70
2018-04-08T16:36:28.397Z,8.50
2018-04-08T16:38:54.749Z,7.37
2018-04-08T16:41:21.703Z,4.90
2018-04-08T16:43:48.062Z,6.83
2018-04-08T16:46:18.190Z,6.17
2018-04-08T16:48:44.566Z,7.63
2018-04-08T16:51:12.104Z,6.67
2018-04-08T16:53:38.432Z,5.63
2018-04-08T16:56:05.153Z,6.20
2018-04-08T16:58:31.524Z,7.73
2018-04-08T17:00:57.960Z,9.97
2018-04-08T17:03:24.316Z,8.93
2018-04-08T17:05:50.687Z,8.60
2018-04-08T17:08:17.794Z,7.33
2018-04-08T17:10:44.146Z,10.17
2018-04-08T17:13:10.523Z,7.90
2018-04-08T17:15:36.967Z,8.60
2018-04-08T17:18:03.472Z,7.50
2018-04-08T17:20:29.894Z,8.80
2018-04-08T17:22:56.868Z,8.93
2018-04-08T17:25:23.211Z,4.37
2018-04-08T17:27:49.753Z,4.53
2018-04-08T17:30:16.188Z,4.87
2018-04-08T17:32:42.846Z,6.20
2018-04-08T17:35:09.197Z,7.07
2018-04-08T17:37:36.895Z,6.57
2018-04-08T17:40:03.537Z,5.90
2018-04-08T17:42:29.938Z,7.30
2018-04-08T17:44:57.072Z,6.17
2018-04-08T17:47:23.530Z,5.73
2018-04-08T17:49:50.645Z,6.43
2018-04-08T17:52:17.091Z,5.67
2018-04-08T17:54:44.530Z,9.27
2018-04-08T17:57:11.020Z,13.40
2018-04-08T17:59:37.398Z,10.63
2018-04-08T18:02:03.813Z,14.70
2018-04-08T18:04:30.180Z,18.23
2018-04-08T18:06:56.523Z,15.30
2018-04-08T18:09:24.094Z,14.43
2018-04-08T18:11:50.825Z,14.53
2018-04-08T18:14:18.228Z,20.37
2018-04-08T18:16:44.628Z,18.43
2018-04-08T18:19:10.960Z,18.67
2018-04-08T18:21:38.962Z,18.20
2018-04-08T18:24:05.430Z,20.00
2018-04-08T18:26:31.834Z,16.63
2018-04-08T18:28:58.752Z,21.40
2018-04-08T18:31:25.080Z,21.40
2018-04-08T18:33:51.586Z,21.93
2018-04-08T18:36:17.926Z,23.93
2018-04-08T18:38:44.998Z,28.57
2018-04-08T18:41:11.330Z,23.43
2018-04-08T18:43:38.914Z,24.00
2018-04-08T18:46:05.581Z,25.77
2018-04-08T18:48:32.048Z,25.50
2018-04-08T18:50:58.409Z,21.90
2018-04-08T18:53:25.485Z,21.67
2018-04-08T18:55:51.820Z,27.90
2018-04-08T18:58:18.216Z,30.23
2018-04-08T19:00:44.536Z,33.00
2018-04-08T19:03:10.905Z,34.13
2018-04-08T19:05:37.260Z,34.53
2018-04-08T19:08:03.630Z,35.87
2018-04-08T19:10:30.984Z,37.17
2018-04-08T19:12:57.372Z,33.63
2018-04-08T19:15:23.769Z,36.43
2018-04-08T19:18:00.247Z,42.57
2018-04-08T19:20:26.613Z,40.93
2018-04-08T19:22:52.973Z,37.10
2018-04-08T19:25:20.057Z,37.67
2018-04-08T19:27:48.338Z,36.47
2018-04-08T19:30:19.801Z,41.63
2018-04-08T19:32:46.260Z,44.27
2018-04-08T19:35:12.722Z,38.83
2018-04-08T19:37:39.194Z,37.60
2018-04-08T19:40:05.622Z,42.63
2018-04-08T19:42:32.823Z,38.80
2018-04-08T19:45:00.043Z,39.50
2018-04-08T19:47:26.503Z,39.43
2018-04-08T19:49:52.939Z,37.23
2018-04-08T19:52:20.066Z,38.93
2018-04-08T19:54:46.494Z,38.13
2018-04-08T19:57:12.913Z,33.37
2018-04-08T19:59:39.321Z,34.50
2018-04-08T20:02:06.513Z,38.13
2018-04-08T20:04:33.014Z,32.77
2018-04-08T20:07:00.105Z,39.93
2018-04-08T20:09:26.556Z,35.87
2018-04-08T20:11:53.004Z,34.37
2018-04-08T20:14:20.126Z,38.67
2018-04-08T20:16:46.539Z,39.43
2018-04-08T20:19:12.942Z,34.27
2018-04-08T20:21:39.354Z,35.67
2018-04-08T20:24:05.778Z,33.70
2018-04-08T20:26:33.006Z,35.70
2018-04-08T20:28:59.430Z,33.87
2018-04-08T20:31:25.898Z,36.83
2018-04-08T20:33:53.131Z,40.23
2018-04-08T20:36:19.540Z,38.23
2018-04-08T20:38:46.013Z,38.20
2018-04-08T20:41:12.441Z,35.87
2018-04-08T20:43:38.835Z,40.80
2018-04-08T20:46:05.207Z,34.47
2018-04-08T20:48:31.647Z,37.00
2018-04-08T20:50:58.787Z,39.33
2018-04-08T20:53:25.253Z,38.53
2018-04-08T20:55:51.690Z,41.73
2018-04-08T20:58:18.127Z,38.20
2018-04-08T21:00:44.555Z,38.57
2018-04-08T21:03:10.949Z,38.63
2018-04-08T21:05:38.131Z,44.23
2018-04-08T21:08:05.284Z,43.10
2018-04-08T21:10:32.470Z,38.27
2018-04-08T21:12:58.974Z,38.60
2018-04-08T21:15:26.822Z,40.57
2018-04-08T21:17:53.260Z,33.90
2018-04-08T21:20:19.671Z,44.37
2018-04-08T21:22:46.102Z,40.83
2018-04-08T21:25:12.544Z,38.97
2018-04-08T21:27:38.989Z,38.90
2018-04-08T21:30:05.499Z,39.67
2018-04-08T21:32:31.962Z,44.17
2018-04-08T21:34:59.195Z,40.27
2018-04-08T21:37:25.658Z,37.37
2018-04-08T21:39:52.856Z,39.67
2018-04-08T21:42:19.279Z,42.97
2018-04-08T21:44:46.427Z,40.97
2018-04-08T21:47:13.599Z,37.90
2018-04-08T21:49:40.085Z,39.33
2018-04-08T21:52:06.501Z,40.30
2018-04-08T21:54:32.885Z,42.80
2018-04-08T21:56:59.338Z,41.00
2018-04-08T21:59:25.799Z,40.17
2018-04-08T22:01:52.297Z,38.47
2018-04-08T22:04:18.729Z,38.30
2018-04-08T22:06:48.703Z,42.00
2018-04-08T22:09:15.114Z,37.03
2018-04-08T22:11:42.288Z,36.90
2018-04-08T22:14:09.509Z,39.20
2018-04-08T22:16:35.919Z,36.03
2018-04-08T22:19:02.499Z,44.13
2018-04-08T22:21:29.691Z,40.93
2018-04-08T22:23:56.088Z,38.97
2018-04-08T22:26:22.614Z,38.77
2018-04-08T22:28:49.048Z,38.17
2018-04-08T22:31:15.509Z,44.80
2018-04-08T22:33:42.057Z,42.37
2018-04-08T22:36:08.477Z,43.53
2018-04-08T22:38:34.901Z,44.90
2018-04-08T22:41:02.076Z,40.37
2018-04-08T22:43:28.578Z,44.87
2018-04-08T22:45:55.697Z,45.43
2018-04-08T22:48:22.135Z,38.77
2018-04-08T22:50:48.600Z,38.73
2018-04-08T22:53:15.073Z,44.37
2018-04-08T22:55:41.493Z,43.67
2018-04-08T22:58:07.875Z,46.03
2018-04-08T23:00:34.289Z,41.37
2018-04-08T23:03:00.749Z,44.13
2018-04-08T23:05:27.163Z,40.33
2018-04-08T23:07:53.538Z,43.30
2018-04-08T23:10:20.024Z,40.73
2018-04-08T23:12:46.513Z,41.57
2018-04-08T23:15:12.905Z,41.10
2018-04-08T23:17:39.408Z,42.73
2018-04-08T23:20:05.891Z,44.27
2018-04-08T23:22:32.286Z,43.40
2018-04-08T23:24:58.737Z,48.70
2018-04-08T23:27:25.166Z,50.73
2018-04-08T23:29:51.639Z,47.40
2018-04-08T23:32:18.042Z,43.93
2018-04-08T23:34:44.509Z,48.77
2018-04-08T23:37:11.677Z,61.07
2018-04-08T23:39:38.099Z,54.13
2018-04-08T23:42:04.558Z,59.67
2018-04-08T23:44:30.995Z,59.53
2018-04-08T23:46:57.419Z,61.07
2018-04-08T23:49:23.783Z,66.87
2018-04-08T23:51:50.253Z,69.17
2018-04-08T23:54:17.451Z,64.47
2018-04-08T23:56:43.840Z,66.30
2018-04-08T23:59:10.962Z,67.40
